Grimes Field (I74)

 

Airport Diagram
No Airport Diagram Available
Current Weather/Forecast (VFR Conditions)
METAR KI74 270235Z AUTO 00000KT 7SM RA SCT016 SCT038 OVC100 06/06 A3026 RMK AO2
TAF

Airport Information

All Charts
General
Chart Name View
TAKEOFF MINIMUMS
ALTERNATE MINIMUMS
TAKEOFF MINIMUMS
ALTERNATE MINIMUMS

Approaches
Chart Name Download
RNAV (GPS) RWY 02
RNAV (GPS) RWY 20
VOR-A
RNAV (GPS) RWY 02
RNAV (GPS) RWY 20
VOR-A


Airport Statistics
Departures Arrivals Local
All Collected Stats since June 2016: 1 4 0
2020 Stats: 1 2 0
October Stats: 0 1 0

Inbound Traffic (Arrivals) - 0

No inbound traffic.


Outbound Traffic (Departures) - 0

No outbound traffic.


Local Traffic (Pattern) - 0

No local traffic.